Time;durP1;ratioP1;P1;durP2;ratioP2;P2;SDS_P1;SDS_P2;PMS_P1;PMS_P2;Temp;Humidity;BMP_temperature;BMP_pressure;BME280_temperature;BME280_humidity;BME280_pressure;Samples;Min_cycle;Max_cycle;Signal;HPM_P1;HPM_P2
2023/09/09 00:01:57;;;;;;;0.10;0.10;;;;;;;19.49;48.61;101641.78;5070851;28;20033;-88
2023/09/09 00:04:22;;;;;;;0.10;0.10;;;;;;;19.25;48.95;101611.16;5053652;28;20402;-87
2023/09/09 00:06:48;;;;;;;0.10;0.10;;;;;;;19.26;49.31;101629.41;5053836;28;20578;-87
2023/09/09 00:09:15;;;;;;;0.10;0.10;;;;;;;19.24;49.11;101643.56;5053592;28;20483;-87
2023/09/09 00:11:40;;;;;;;0.20;0.20;;;;;;;19.20;49.65;101646.41;5037425;28;20044;-88
2023/09/09 00:14:06;;;;;;;0.20;0.20;;;;;;;19.27;49.39;101653.84;5052994;28;20028;-88
2023/09/09 00:16:34;;;;;;;0.20;0.20;;;;;;;19.23;49.39;101647.16;5070137;28;20029;-88
2023/09/09 00:19:00;;;;;;;0.10;0.10;;;;;;;19.34;49.01;101652.50;5054138;28;20021;-88
2023/09/09 00:21:26;;;;;;;0.20;0.20;;;;;;;19.19;48.36;101639.50;5053798;28;20033;-88
2023/09/09 00:23:51;;;;;;;0.10;0.10;;;;;;;19.00;48.40;101605.00;5037684;28;20370;-87
2023/09/09 00:26:17;;;;;;;0.20;0.20;;;;;;;19.33;47.91;101640.31;5053721;28;20506;-87
2023/09/09 00:29:07;;;;;;;0.10;0.10;;;;;;;19.31;48.18;101650.09;5053732;28;20475;-87
2023/09/09 00:31:33;;;;;;;0.10;0.10;;;;;;;19.00;49.03;101631.22;5070331;28;20043;-86
2023/09/09 00:33:59;;;;;;;0.10;0.10;;;;;;;19.10;48.56;101645.38;5049612;28;20414;-87
2023/09/09 00:37:07;;;;;;;0.10;0.10;;;;;;;19.09;48.31;101656.81;5053870;28;20059;-88
2023/09/09 00:39:32;;;;;;;0.10;0.10;;;;;;;18.98;48.29;101640.13;5054565;28;20078;-87
2023/09/09 00:41:57;;;;;;;0.10;0.10;;;;;;;18.93;47.95;101643.06;5052767;28;20028;-87
2023/09/09 00:44:23;;;;;;;0.10;0.10;;;;;;;18.92;48.31;101663.19;5069483;28;20032;-89
2023/09/09 00:46:48;;;;;;;0.10;0.10;;;;;;;18.87;48.13;101639.06;5070222;28;20044;-87
2023/09/09 00:49:14;;;;;;;0.10;0.10;;;;;;;18.96;47.43;101648.09;5070069;28;20490;-88
2023/09/09 00:51:39;;;;;;;0.20;0.20;;;;;;;18.94;47.31;101655.22;5052781;28;20560;-86
2023/09/09 00:54:05;;;;;;;0.10;0.10;;;;;;;18.90;47.38;101651.97;5069006;28;20055;-87
2023/09/09 00:56:33;;;;;;;0.10;0.10;;;;;;;18.75;47.61;101652.16;5052556;28;20021;-88
2023/09/09 00:58:58;;;;;;;0.20;0.20;;;;;;;18.85;46.83;101651.44;5053212;28;20463;-87
2023/09/09 01:01:24;;;;;;;0.20;0.20;;;;;;;18.94;47.00;101651.75;5052232;28;20028;-89
2023/09/09 01:07:11;;;;;;;0.20;0.20;;;;;;;18.67;46.68;101660.53;5053897;28;20036;-87
2023/09/09 01:09:37;;;;;;;0.20;0.20;;;;;;;18.53;46.88;101640.47;5068961;28;20406;-88
2023/09/09 01:12:03;;;;;;;0.10;0.10;;;;;;;18.53;46.84;101637.84;5052462;28;20036;-87
2023/09/09 01:14:29;;;;;;;0.20;0.20;;;;;;;18.43;46.94;101623.66;5052850;28;20033;-88
2023/09/09 01:16:54;;;;;;;0.10;0.10;;;;;;;18.53;46.35;101639.63;5068758;28;20110;-87
2023/09/09 01:19:23;;;;;;;0.20;0.20;;;;;;;18.48;46.90;101641.69;5052029;28;20033;-87
2023/09/09 01:21:49;;;;;;;0.10;0.10;;;;;;;18.48;46.84;101645.16;5052427;28;20029;-87
2023/09/09 01:24:26;;;;;;;0.20;0.20;;;;;;;18.42;48.14;101642.94;5052277;28;20032;-87
2023/09/09 01:30:21;;;;;;;0.10;0.10;;;;;;;18.33;50.75;101648.78;5053434;28;20043;-87
2023/09/09 01:36:48;;;;;;;0.20;0.20;;;;;;;17.94;52.02;101626.84;5052937;28;20506;-87
2023/09/09 01:39:32;;;;;;;0.10;0.10;;;;;;;18.19;51.49;101651.44;5052116;28;20056;-87
2023/09/09 01:42:08;;;;;;;0.15;0.15;;;;;;;17.96;51.35;101645.06;5052085;28;20025;-87
2023/09/09 01:44:34;;;;;;;0.10;0.10;;;;;;;17.75;51.52;101635.03;5068478;28;20029;-86
2023/09/09 01:46:59;;;;;;;0.10;0.10;;;;;;;17.81;52.25;101661.78;5053943;28;20021;-87
2023/09/09 01:49:25;;;;;;;0.10;0.10;;;;;;;17.60;51.59;101640.34;5068306;28;20496;-87
2023/09/09 01:51:50;;;;;;;0.10;0.10;;;;;;;17.73;51.83;101662.25;5053238;28;20021;-87
2023/09/09 01:54:15;;;;;;;0.20;0.20;;;;;;;17.59;51.90;101654.34;5051168;28;20028;-88
2023/09/09 01:56:41;;;;;;;0.10;0.10;;;;;;;17.54;51.53;101643.34;5052343;28;20028;-87
2023/09/09 01:59:06;;;;;;;0.10;0.10;;;;;;;17.53;51.93;101644.28;5034730;28;20033;-87
2023/09/09 02:01:46;;;;;;;0.10;0.10;;;;;;;17.59;51.85;101662.22;5052114;28;20536;-87
2023/09/09 02:04:11;;;;;;;0.10;0.10;;;;;;;17.47;51.97;101651.56;5068227;28;20052;-88
2023/09/09 02:06:49;;;;;;;0.10;0.10;;;;;;;17.49;52.56;101661.94;5068303;28;20486;-88
2023/09/09 02:09:23;;;;;;;0.10;0.10;;;;;;;17.30;52.30;101630.84;5051614;28;20467;-87
2023/09/09 02:12:06;;;;;;;0.10;0.10;;;;;;;17.34;53.12;101663.72;5051164;28;20033;-88
2023/09/09 02:14:32;;;;;;;0.20;0.20;;;;;;;17.49;54.24;101668.00;5050708;28;20387;-87
2023/09/09 02:16:57;;;;;;;0.10;0.10;;;;;;;17.55;54.59;101679.03;5067127;28;20032;-87
2023/09/09 02:19:23;;;;;;;0.10;0.10;;;;;;;17.41;55.13;101661.59;5051389;28;20088;-87
2023/09/09 02:21:48;;;;;;;0.10;0.10;;;;;;;17.41;55.25;101656.34;5050966;28;20037;-87
2023/09/09 02:24:14;;;;;;;0.10;0.10;;;;;;;17.56;55.08;101673.72;5053055;28;20025;-88
2023/09/09 02:26:39;;;;;;;0.10;0.10;;;;;;;17.37;56.46;101665.31;5051564;28;20123;-87
2023/09/09 02:29:05;;;;;;;0.10;0.10;;;;;;;17.42;55.77;101651.03;5068406;28;20021;-87
2023/09/09 02:31:30;;;;;;;0.20;0.20;;;;;;;17.42;56.49;101673.72;5051456;28;20033;-86
2023/09/09 02:33:55;;;;;;;0.20;0.20;;;;;;;17.33;56.12;101655.97;5050781;28;20032;-88
2023/09/09 02:36:21;;;;;;;0.10;0.10;;;;;;;17.33;56.42;101651.59;5040263;28;20549;-87
2023/09/09 02:38:47;;;;;;;0.17;0.17;;;;;;;17.52;56.04;101674.00;5051322;28;20040;-87
2023/09/09 02:41:15;;;;;;;0.20;0.20;;;;;;;17.37;57.16;101676.59;5067952;28;20032;-88
2023/09/09 02:47:03;;;;;;;0.10;0.10;;;;;;;17.27;58.00;101675.50;5052228;28;20086;-87
2023/09/09 02:49:28;;;;;;;0.20;0.20;;;;;;;17.17;58.70;101663.91;5050209;28;20096;-87
2023/09/09 02:51:53;;;;;;;0.10;0.10;;;;;;;17.15;59.16;101655.31;5050725;28;20044;-87
2023/09/09 02:54:19;;;;;;;0.20;0.20;;;;;;;17.32;59.22;101670.00;5050424;28;20499;-88
2023/09/09 02:56:44;;;;;;;0.20;0.20;;;;;;;17.23;59.69;101667.94;5067180;28;20039;-87
2023/09/09 02:59:10;;;;;;;0.20;0.20;;;;;;;17.20;59.86;101661.09;5050690;28;20070;-87
2023/09/09 03:01:37;;;;;;;0.10;0.10;;;;;;;17.26;59.44;101665.13;5051106;28;20025;-88
2023/09/09 03:04:36;;;;;;;0.10;0.10;;;;;;;17.21;60.34;101668.03;5067660;28;20029;-87
2023/09/09 03:07:02;;;;;;;0.10;0.10;;;;;;;17.12;60.40;101668.56;5068119;28;20059;-88
2023/09/09 03:09:29;;;;;;;0.10;0.10;;;;;;;17.02;60.35;101664.84;5050544;28;20417;-86
2023/09/09 03:11:55;;;;;;;0.10;0.10;;;;;;;17.06;59.72;101656.69;5066978;28;20037;-87
2023/09/09 03:14:21;;;;;;;0.15;0.15;;;;;;;17.13;59.77;101663.25;5049930;28;20059;-87
2023/09/09 03:16:47;;;;;;;0.20;0.20;;;;;;;17.12;59.67;101658.13;5051450;28;20029;-88
2023/09/09 03:19:12;;;;;;;0.10;0.10;;;;;;;17.17;59.42;101661.28;5050671;28;20087;-88
2023/09/09 03:21:38;;;;;;;0.20;0.20;;;;;;;16.98;59.47;101643.25;5067430;28;20032;-87
2023/09/09 03:27:37;;;;;;;0.10;0.10;;;;;;;16.89;58.80;101636.78;5051812;28;20551;-87
2023/09/09 03:30:03;;;;;;;0.10;0.10;;;;;;;16.94;58.63;101640.91;5055405;28;20395;-88
2023/09/09 03:32:29;;;;;;;0.10;0.10;;;;;;;16.87;58.50;101648.28;5054825;28;20025;-86
2023/09/09 03:34:55;;;;;;;0.20;0.20;;;;;;;17.13;57.78;101665.88;5070739;28;20118;-87
2023/09/09 03:37:26;;;;;;;0.10;0.10;;;;;;;17.01;58.40;101660.50;5063521;28;20061;-88
2023/09/09 03:39:52;;;;;;;0.20;0.20;;;;;;;17.10;57.26;101658.19;5037258;28;20102;-87
2023/09/09 03:42:17;;;;;;;0.10;0.10;;;;;;;17.09;56.88;101663.50;5037192;28;20037;-86
2023/09/09 03:44:58;;;;;;;0.20;0.20;;;;;;;17.12;57.14;101668.56;5054176;28;20083;-88
2023/09/09 03:47:23;;;;;;;0.17;0.17;;;;;;;17.13;57.49;101671.09;5037565;28;20033;-88
2023/09/09 03:49:50;;;;;;;0.20;0.20;;;;;;;17.03;57.58;101663.91;5053722;28;20502;-86
2023/09/09 03:52:16;;;;;;;0.10;0.10;;;;;;;16.91;57.87;101663.69;5037018;28;20135;-87
2023/09/09 03:54:41;;;;;;;0.20;0.20;;;;;;;16.85;57.80;101652.75;5054244;28;20502;-87
2023/09/09 03:57:06;;;;;;;0.10;0.10;;;;;;;17.00;57.65;101669.28;5037881;28;20458;-87
2023/09/09 03:59:33;;;;;;;0.20;0.20;;;;;;;17.08;57.26;101677.53;5037436;28;20495;-87
2023/09/09 04:02:03;;;;;;;0.20;0.20;;;;;;;17.08;56.90;101672.28;5037700;28;20036;-87
2023/09/09 04:04:28;;;;;;;0.20;0.20;;;;;;;17.02;57.32;101678.75;5037618;28;20107;-87
2023/09/09 04:06:54;;;;;;;0.15;0.15;;;;;;;16.98;57.15;101681.63;5053772;28;20123;-88
2023/09/09 04:09:26;;;;;;;0.10;0.10;;;;;;;16.96;56.45;101675.63;5037241;28;20048;-86
2023/09/09 04:11:52;;;;;;;0.10;0.10;;;;;;;16.96;56.92;101688.72;5038100;28;20040;-87
2023/09/09 04:14:17;;;;;;;0.20;0.20;;;;;;;17.01;56.48;101681.41;5020709;28;20037;-87
2023/09/09 04:16:43;;;;;;;0.10;0.10;;;;;;;16.95;56.23;101668.72;5037340;28;20036;-88
2023/09/09 04:19:09;;;;;;;0.10;0.10;;;;;;;16.95;55.94;101685.25;5036328;28;20067;-87
2023/09/09 04:22:00;;;;;;;0.10;0.10;;;;;;;16.97;56.12;101695.63;5036946;28;20040;-87
2023/09/09 04:24:26;;;;;;;0.10;0.10;;;;;;;16.83;57.02;101683.38;5054074;28;20525;-88
2023/09/09 04:26:51;;;;;;;0.20;0.20;;;;;;;16.84;56.90;101678.03;5036956;28;20029;-88
2023/09/09 04:29:16;;;;;;;0.20;0.20;;;;;;;16.92;56.66;101691.50;5036786;28;20045;-87
2023/09/09 04:31:43;;;;;;;0.20;0.20;;;;;;;16.88;56.60;101682.16;5036417;28;20036;-87
2023/09/09 04:34:33;;;;;;;0.10;0.10;;;;;;;17.01;56.31;101689.25;5020741;28;20025;-86
2023/09/09 04:36:59;;;;;;;0.20;0.20;;;;;;;17.10;56.16;101686.09;5052949;28;20082;-87
2023/09/09 04:39:35;;;;;;;0.20;0.20;;;;;;;16.96;56.92;101689.56;5033640;28;20580;-87
2023/09/09 04:42:09;;;;;;;0.20;0.20;;;;;;;16.93;57.07;101684.50;5017250;28;20070;-86
2023/09/09 04:47:44;;;;;;;0.20;0.20;;;;;;;16.97;57.69;101690.38;5034026;28;20034;-87
2023/09/09 04:50:10;;;;;;;0.20;0.20;;;;;;;16.94;57.61;101685.34;5033397;28;20034;-86
2023/09/09 04:52:35;;;;;;;0.10;0.10;;;;;;;16.89;58.23;101683.00;5016346;28;20037;-87
2023/09/09 04:55:26;;;;;;;0.15;0.15;;;;;;;17.06;57.91;101689.84;5000732;28;20059;-87
2023/09/09 05:01:12;;;;;;;0.20;0.20;;;;;;;16.96;57.42;101701.78;5034255;28;20045;-87
2023/09/09 05:03:38;;;;;;;0.20;0.20;;;;;;;17.00;57.00;101687.59;5016199;28;20422;-88
2023/09/09 05:06:03;;;;;;;0.20;0.20;;;;;;;16.94;56.17;101686.19;5015813;28;20033;-87
2023/09/09 05:09:09;;;;;;;0.13;0.13;;;;;;;17.05;56.41;101707.31;5016740;28;20045;-87
2023/09/09 05:11:40;;;;;;;0.20;0.20;;;;;;;16.97;56.50;101708.69;5034424;28;20030;-87
2023/09/09 05:17:21;;;;;;;0.10;0.10;;;;;;;17.06;55.39;101693.31;5033515;28;20034;-87
2023/09/09 05:19:47;;;;;;;0.10;0.10;;;;;;;17.18;54.77;101699.56;5016224;28;20029;-87
2023/09/09 05:22:12;;;;;;;0.20;0.20;;;;;;;17.13;55.01;101696.41;5015596;28;20052;-86
2023/09/09 05:25:27;;;;;;;0.10;0.10;;;;;;;17.36;53.55;101713.31;5012653;28;20025;-88
2023/09/09 05:27:53;;;;;;;0.10;0.10;;;;;;;17.46;53.75;101717.06;5023310;28;20029;-86
2023/09/09 05:30:21;;;;;;;0.10;0.10;;;;;;;17.49;53.84;101715.09;5016149;28;20034;-87
2023/09/09 05:32:47;;;;;;;0.10;0.10;;;;;;;17.49;53.66;101699.41;5015574;28;20033;-88
2023/09/09 05:35:12;;;;;;;0.17;0.17;;;;;;;17.54;53.94;101707.00;5015558;28;20030;-87
2023/09/09 05:37:40;;;;;;;0.20;0.20;;;;;;;17.49;53.88;101707.25;5016061;28;20514;-87
2023/09/09 05:44:07;;;;;;;0.20;0.20;;;;;;;17.64;54.64;101717.72;5053544;28;20060;-87
2023/09/09 05:46:45;;;;;;;0.20;0.20;;;;;;;17.79;54.21;101727.28;5051825;28;20037;-87
2023/09/09 05:49:18;;;;;;;0.20;0.20;;;;;;;17.94;53.89;101720.25;5067803;28;20029;-87
2023/09/09 05:51:44;;;;;;;0.20;0.20;;;;;;;17.99;53.46;101705.97;5051253;28;20039;-87
2023/09/09 05:54:09;;;;;;;0.20;0.20;;;;;;;18.12;52.87;101707.78;5068102;28;20017;-87
2023/09/09 05:56:35;;;;;;;0.20;0.20;;;;;;;18.21;52.54;101715.06;5051591;28;20112;-86
2023/09/09 05:59:00;;;;;;;0.20;0.20;;;;;;;18.42;51.96;101728.56;5068361;28;20540;-87
2023/09/09 06:01:51;;;;;;;0.20;0.20;;;;;;;18.52;51.96;101730.50;5051486;28;20068;-88
2023/09/09 06:04:16;;;;;;;0.20;0.20;;;;;;;18.49;51.50;101707.13;5068422;28;20029;-87
2023/09/09 06:06:45;;;;;;;0.20;0.20;;;;;;;18.71;50.74;101716.22;5068172;28;20404;-87
2023/09/09 06:09:11;;;;;;;0.10;0.10;;;;;;;18.94;49.10;101723.41;5052428;28;20049;-87
2023/09/09 06:11:48;;;;;;;0.20;0.20;;;;;;;19.13;48.32;101729.09;5051578;28;20536;-87
2023/09/09 06:14:14;;;;;;;0.10;0.10;;;;;;;19.14;49.41;101725.53;5067258;28;20033;-86
2023/09/09 06:17:02;;;;;;;0.15;0.15;;;;;;;19.30;48.79;101724.50;5068315;28;20025;-88
2023/09/09 06:19:28;;;;;;;0.20;0.20;;;;;;;19.09;48.84;101696.16;5064876;28;20021;-86
2023/09/09 06:21:53;;;;;;;0.10;0.10;;;;;;;19.33;48.28;101719.03;5032614;28;20438;-87
2023/09/09 06:24:47;;;;;;;0.20;0.20;;;;;;;19.41;49.34;101728.06;5051612;28;20025;-87
2023/09/09 06:27:45;;;;;;;0.10;0.10;;;;;;;19.51;48.47;101738.75;5067728;28;20029;-87
2023/09/09 06:30:11;;;;;;;0.10;0.10;;;;;;;19.45;47.15;101715.56;5052513;28;20036;-87
2023/09/09 06:32:36;;;;;;;0.20;0.20;;;;;;;19.53;46.23;101709.78;5068262;28;20033;-87
2023/09/09 06:35:02;;;;;;;0.20;0.20;;;;;;;19.69;46.17;101721.78;5067275;28;20025;-87
2023/09/09 06:37:28;;;;;;;0.20;0.20;;;;;;;19.72;45.94;101715.47;5051879;28;20112;-87
2023/09/09 06:39:53;;;;;;;0.10;0.10;;;;;;;19.84;45.08;101727.72;5050632;28;20029;-87
2023/09/09 06:42:52;;;;;;;0.20;0.20;;;;;;;20.08;45.37;101748.81;5066229;28;20056;-87
2023/09/09 06:45:25;;;;;;;0.20;0.20;;;;;;;20.18;46.70;101738.47;5012263;28;20104;-87
2023/09/09 06:48:46;;;;;;;0.20;0.20;;;;;;;20.28;45.96;101745.59;5013015;28;20022;-88
2023/09/09 06:51:12;;;;;;;0.20;0.20;;;;;;;20.27;45.31;101737.81;5032668;28;20034;-86
2023/09/09 06:54:34;;;;;;;0.20;0.20;;;;;;;20.31;44.78;101745.34;4998773;28;20475;-87
2023/09/09 06:56:59;;;;;;;0.20;0.20;;;;;;;20.46;42.95;101737.34;5032334;28;20502;-88
2023/09/09 06:59:26;;;;;;;0.20;0.20;;;;;;;20.63;42.29;101736.94;5014731;28;20029;-88
2023/09/09 07:01:51;;;;;;;0.10;0.10;;;;;;;20.72;40.81;101732.78;5028960;28;20033;-88
2023/09/09 07:04:16;;;;;;;0.10;0.10;;;;;;;20.76;41.14;101715.84;5013690;28;20431;-87
2023/09/09 07:06:52;;;;;;;0.20;0.20;;;;;;;20.96;41.12;101730.97;5014996;28;20044;-86
2023/09/09 07:09:20;;;;;;;0.20;0.20;;;;;;;20.94;41.51;101713.63;5018544;28;20075;-87
2023/09/09 07:11:59;;;;;;;0.20;0.20;;;;;;;21.15;40.17;101731.25;5032016;28;20467;-87
2023/09/09 07:14:24;;;;;;;0.10;0.10;;;;;;;21.31;39.61;101735.38;5015070;28;20101;-87
2023/09/09 07:17:05;;;;;;;0.20;0.20;;;;;;;21.42;38.42;101723.06;5025371;28;20471;-87
2023/09/09 07:19:30;;;;;;;0.20;0.20;;;;;;;21.52;39.13;101722.34;5002447;28;20033;-88
2023/09/09 07:21:55;;;;;;;0.20;0.20;;;;;;;21.46;37.98;101708.72;5031485;28;20038;-86
2023/09/09 07:24:24;;;;;;;0.10;0.10;;;;;;;21.45;37.90;101704.41;5017779;28;20033;-87
2023/09/09 07:27:00;;;;;;;0.20;0.20;;;;;;;21.56;38.47;101718.53;5018472;28;20043;-89
2023/09/09 07:32:54;;;;;;;0.20;0.20;;;;;;;21.83;37.29;101731.31;5035756;28;20039;-87
2023/09/09 07:35:19;;;;;;;0.10;0.10;;;;;;;21.92;37.67;101727.94;5017867;28;20029;-87
2023/09/09 07:37:44;;;;;;;0.20;0.20;;;;;;;22.02;36.77;101728.91;5033983;28;20111;-86
2023/09/09 07:40:29;;;;;;;0.17;0.17;;;;;;;22.16;37.39;101727.84;5018166;28;20033;-87
2023/09/09 07:42:55;;;;;;;0.20;0.20;;;;;;;22.23;35.97;101734.31;5034283;28;20080;-87
2023/09/09 07:45:20;;;;;;;0.20;0.20;;;;;;;22.23;35.42;101723.75;5030448;28;20068;-87
2023/09/09 07:47:46;;;;;;;0.17;0.17;;;;;;;22.30;36.32;101724.91;5070736;28;20025;-87
2023/09/09 07:50:12;;;;;;;0.20;0.20;;;;;;;22.40;35.96;101717.94;5062381;28;20478;-86
2023/09/09 07:52:39;;;;;;;0.20;0.20;;;;;;;22.58;35.08;101713.78;5037702;28;20475;-86
2023/09/09 07:55:05;;;;;;;0.20;0.20;;;;;;;22.72;34.72;101710.03;5070081;28;20454;-88
2023/09/09 07:57:30;;;;;;;0.15;0.15;;;;;;;22.76;34.57;101713.25;5048392;28;20039;-87
2023/09/09 07:59:56;;;;;;;0.20;0.20;;;;;;;22.63;33.80;101704.69;5036548;28;20434;-87
2023/09/09 08:02:22;;;;;;;0.20;0.20;;;;;;;22.88;33.44;101723.63;5063752;28;20087;-88
2023/09/09 08:04:47;;;;;;;0.20;0.20;;;;;;;23.10;34.24;101725.28;5070769;28;20483;-88
2023/09/09 08:07:32;;;;;;;0.20;0.20;;;;;;;23.14;34.74;101720.59;5045639;28;20502;-87
2023/09/09 08:09:58;;;;;;;0.20;0.20;;;;;;;23.21;34.99;101724.41;5055253;28;20029;-87
2023/09/09 08:12:23;;;;;;;0.17;0.17;;;;;;;23.30;34.12;101714.84;5047763;28;20032;-88
2023/09/09 08:18:11;;;;;;;0.20;0.20;;;;;;;23.72;33.76;101721.75;5054813;28;20517;-87
2023/09/09 08:20:37;;;;;;;0.20;0.20;;;;;;;23.81;33.44;101703.44;5065174;28;20021;-87
2023/09/09 08:23:02;;;;;;;0.20;0.20;;;;;;;23.98;32.79;101713.31;5069785;28;20091;-87
2023/09/09 08:25:32;;;;;;;0.20;0.20;;;;;;;24.12;31.78;101712.13;5020240;28;20079;-86
2023/09/09 08:27:59;;;;;;;0.20;0.20;;;;;;;24.08;32.22;101703.59;5050649;28;20043;-87
2023/09/09 08:30:25;;;;;;;0.20;0.20;;;;;;;24.16;32.00;101713.50;5063786;28;20032;-87
2023/09/09 08:33:13;;;;;;;0.10;0.10;;;;;;;24.35;32.15;101712.72;5037265;28;20036;-87
2023/09/09 08:35:39;;;;;;;0.20;0.20;;;;;;;24.51;31.84;101707.72;5065215;28;20486;-86
2023/09/09 08:38:04;;;;;;;0.20;0.20;;;;;;;24.50;31.50;101695.47;5036800;28;20040;-87
2023/09/09 08:48:38;;;;;;;0.20;0.20;;;;;;;24.88;31.18;101700.72;4993077;28;20137;-87
2023/09/09 08:51:04;;;;;;;0.17;0.17;;;;;;;25.00;31.06;101692.63;4992067;28;20082;-88
2023/09/09 08:53:32;;;;;;;0.20;0.20;;;;;;;25.15;31.07;101689.38;4992811;28;20042;-87
2023/09/09 08:56:35;;;;;;;0.10;0.10;;;;;;;25.30;30.48;101692.41;4976324;28;20030;-87
2023/09/09 08:59:01;;;;;;;0.20;0.20;;;;;;;25.23;29.87;101670.13;4993010;28;20046;-87
2023/09/09 09:01:26;;;;;;;0.20;0.20;;;;;;;25.28;29.91;101680.31;4976669;28;20034;-87
2023/09/09 09:03:54;;;;;;;0.20;0.20;;;;;;;25.40;30.14;101674.69;4976015;28;20034;-87
2023/09/09 09:10:05;;;;;;;0.20;0.20;;;;;;;25.86;29.33;101696.78;4992354;28;20057;-88
2023/09/09 09:16:04;;;;;;;0.20;0.20;;;;;;;25.93;29.74;101660.72;4991934;28;20069;-88
2023/09/09 09:22:12;;;;;;;0.20;0.20;;;;;;;26.32;29.14;101668.41;4992387;28;20562;-88
2023/09/09 09:28:18;;;;;;;0.20;0.20;;;;;;;26.74;27.72;101670.41;4992215;28;20070;-87
2023/09/09 09:34:54;;;;;;;0.20;0.20;;;;;;;27.24;27.81;101657.31;5018439;28;20052;-87
2023/09/09 09:37:20;;;;;;;0.20;0.20;;;;;;;27.45;27.53;101646.28;5033907;28;20036;-87
2023/09/09 09:39:58;;;;;;;0.20;0.20;;;;;;;27.49;25.90;101649.44;5015547;28;20033;-87
2023/09/09 09:42:43;;;;;;;0.20;0.20;;;;;;;27.54;26.00;101647.16;5015790;28;20029;-87
2023/09/09 09:45:09;;;;;;;0.20;0.20;;;;;;;27.71;26.35;101647.03;5031993;28;20059;-87
2023/09/09 09:47:52;;;;;;;0.20;0.20;;;;;;;27.46;26.18;101626.69;5015983;28;20037;-87
2023/09/09 10:00:36;;;;;;;0.20;0.20;;;;;;;28.46;25.50;101627.53;5031772;28;20041;-87
2023/09/09 10:03:02;;;;;;;0.15;0.15;;;;;;;28.60;25.20;101629.50;5030912;28;20594;-87
2023/09/09 10:06:01;;;;;;;0.20;0.20;;;;;;;28.89;24.11;101625.47;5031687;28;20108;-88
2023/09/09 10:08:29;;;;;;;0.20;0.20;;;;;;;28.94;24.46;101613.31;5031866;28;20032;-87
2023/09/09 10:11:04;;;;;;;0.20;0.20;;;;;;;29.06;23.68;101616.44;5015332;28;20087;-87
2023/09/09 10:13:56;;;;;;;0.20;0.20;;;;;;;29.19;23.84;101616.72;5014736;28;20395;-88
2023/09/09 10:16:22;;;;;;;0.20;0.20;;;;;;;29.29;22.80;101611.19;5031837;28;20029;-87
2023/09/09 10:18:48;;;;;;;0.20;0.20;;;;;;;29.36;21.77;101609.47;5015742;28;20549;-88
2023/09/09 10:21:34;;;;;;;0.20;0.20;;;;;;;29.49;22.23;101614.28;5015417;28;20033;-87
2023/09/09 10:27:22;;;;;;;0.37;0.30;;;;;;;29.68;17.59;101608.50;5032665;28;20107;-87
2023/09/09 10:29:47;;;;;;;0.20;0.20;;;;;;;29.73;18.11;101600.81;5014434;28;20276;-88
2023/09/09 10:32:13;;;;;;;0.20;0.20;;;;;;;29.56;17.34;101572.59;5014883;28;20040;-88
2023/09/09 10:34:38;;;;;;;0.20;0.20;;;;;;;29.85;18.57;101591.38;5026779;28;20025;-88
2023/09/09 10:37:04;;;;;;;0.20;0.20;;;;;;;29.81;20.26;101574.09;5030196;28;20045;-88
2023/09/09 10:40:01;;;;;;;0.20;0.20;;;;;;;30.18;19.99;101591.13;5015142;28;20037;-88
2023/09/09 10:42:26;;;;;;;0.20;0.20;;;;;;;30.39;19.69;101590.47;5031233;28;20102;-88
2023/09/09 10:44:53;;;;;;;0.20;0.20;;;;;;;30.47;19.78;101582.34;5015242;28;20029;-88
2023/09/09 10:47:19;;;;;;;0.20;0.20;;;;;;;30.47;18.53;101588.53;5014510;28;20111;-89
2023/09/09 10:49:45;;;;;;;0.20;0.20;;;;;;;30.56;18.36;101575.91;5015092;28;20565;-90
2023/09/09 10:52:29;;;;;;;0.20;0.20;;;;;;;30.62;19.27;101574.38;5015310;28;20061;-87
2023/09/09 11:02:22;;;;;;;0.20;0.20;;;;;;;30.75;19.49;101569.25;5030517;28;20046;-88
2023/09/09 11:09:04;;;;;;;0.20;0.20;;;;;;;31.06;19.09;101551.13;5032158;28;20037;-88
2023/09/09 11:15:10;;;;;;;0.20;0.20;;;;;;;31.04;19.57;101552.34;5022046;28;20200;-87
2023/09/09 11:17:35;;;;;;;0.20;0.20;;;;;;;31.13;19.71;101540.53;5014304;28;20551;-87
2023/09/09 11:20:01;;;;;;;0.20;0.20;;;;;;;31.13;19.26;101525.34;5013947;28;20028;-89
2023/09/09 11:22:34;;;;;;;0.20;0.20;;;;;;;31.12;19.45;101504.97;5014262;28;20112;-88
2023/09/09 11:28:37;;;;;;;0.20;0.20;;;;;;;31.24;20.24;101529.38;5032210;28;20033;-87
2023/09/09 11:34:34;;;;;;;0.20;0.20;;;;;;;31.24;18.75;101499.16;5031961;28;20041;-88
2023/09/09 11:37:00;;;;;;;0.20;0.20;;;;;;;31.23;18.39;101481.47;5014244;28;20029;-88
2023/09/09 11:39:26;;;;;;;0.20;0.20;;;;;;;31.50;18.22;101501.28;5014197;28;20033;-89
2023/09/09 11:46:10;;;;;;;0.20;0.20;;;;;;;31.46;18.43;101518.72;5030217;28;20025;-89
2023/09/09 11:48:36;;;;;;;0.20;0.20;;;;;;;31.46;18.27;101508.84;5032205;28;20041;-88
2023/09/09 11:51:02;;;;;;;0.20;0.20;;;;;;;31.56;17.91;101504.03;5018119;28;20059;-88
2023/09/09 11:57:05;;;;;;;0.30;0.30;;;;;;;31.67;18.46;101476.75;5035438;28;20049;-87
2023/09/09 12:00:09;;;;;;;0.20;0.20;;;;;;;31.76;19.03;101500.69;5017852;28;20025;-88
2023/09/09 12:02:34;;;;;;;0.20;0.20;;;;;;;31.84;19.09;101497.88;5035489;28;20476;-87
2023/09/09 12:05:01;;;;;;;0.20;0.20;;;;;;;31.74;18.79;101479.47;5017902;28;20034;-87
2023/09/09 12:07:32;;;;;;;0.20;0.20;;;;;;;32.02;18.92;101492.88;5017815;28;20486;-88
2023/09/09 12:09:58;;;;;;;0.20;0.20;;;;;;;32.02;19.04;101487.53;5017872;28;20029;-89
2023/09/09 12:12:23;;;;;;;0.20;0.20;;;;;;;32.12;19.03;101488.00;5034347;28;20025;-88
2023/09/09 12:15:06;;;;;;;0.20;0.20;;;;;;;32.21;18.53;101478.81;5000736;28;20100;-88
2023/09/09 12:17:31;;;;;;;0.20;0.20;;;;;;;32.16;18.79;101467.06;5017162;28;20025;-88
2023/09/09 12:20:02;;;;;;;0.20;0.20;;;;;;;32.18;18.88;101468.50;5017523;28;20036;-88
2023/09/09 12:22:39;;;;;;;0.20;0.20;;;;;;;32.27;18.76;101465.69;5017646;28;20022;-88
2023/09/09 12:29:05;;;;;;;0.20;0.20;;;;;;;31.96;19.50;101472.28;5034850;28;20124;-87
2023/09/09 12:38:20;;;;;;;0.20;0.20;;;;;;;31.02;19.36;101453.69;5033726;28;20442;-88
2023/09/09 12:40:48;;;;;;;0.20;0.20;;;;;;;30.90;20.19;101457.03;5016844;28;20037;-88
2023/09/09 12:43:20;;;;;;;0.20;0.20;;;;;;;30.77;20.28;101460.38;5034350;28;20034;-88
2023/09/09 12:46:05;;;;;;;0.20;0.20;;;;;;;30.73;20.61;101459.09;5017056;28;20029;-88
2023/09/09 12:48:33;;;;;;;0.20;0.20;;;;;;;30.75;20.71;101431.16;5047873;28;20032;-88
2023/09/09 12:50:59;;;;;;;0.20;0.20;;;;;;;30.64;20.54;101420.13;5052996;28;20115;-88
2023/09/09 12:53:24;;;;;;;0.20;0.20;;;;;;;30.60;20.25;101442.88;5036126;28;20104;-87
2023/09/09 12:56:05;;;;;;;0.20;0.20;;;;;;;30.50;20.24;101433.31;5036952;28;20036;-88
2023/09/09 12:58:56;;;;;;;0.20;0.20;;;;;;;30.72;20.76;101452.09;5036597;28;20033;-88
2023/09/09 13:04:31;;;;;;;0.20;0.20;;;;;;;30.37;20.77;101433.13;5054024;28;20029;-88
2023/09/09 13:06:57;;;;;;;0.20;0.20;;;;;;;30.31;21.00;101436.56;5035993;28;20029;-88
2023/09/09 13:16:41;;;;;;;0.20;0.20;;;;;;;30.29;21.90;101443.09;5052653;28;20044;-88
2023/09/09 13:19:07;;;;;;;0.20;0.20;;;;;;;30.23;22.18;101439.31;5052220;28;20537;-88
2023/09/09 13:21:32;;;;;;;0.20;0.20;;;;;;;30.24;22.08;101443.63;5036006;28;20033;-88
2023/09/09 13:23:58;;;;;;;0.20;0.20;;;;;;;30.17;22.28;101424.03;5035709;28;20471;-89
2023/09/09 13:26:24;;;;;;;0.20;0.20;;;;;;;30.08;21.89;101401.13;5036673;28;20028;-88
2023/09/09 13:28:52;;;;;;;0.20;0.20;;;;;;;30.19;21.48;101424.69;5053947;28;20445;-87
2023/09/09 13:31:17;;;;;;;0.20;0.20;;;;;;;30.14;21.73;101416.41;5035470;28;20090;-87
2023/09/09 13:34:01;;;;;;;0.20;0.20;;;;;;;30.11;22.09;101422.13;5036107;28;20020;-88
2023/09/09 13:36:40;;;;;;;0.20;0.20;;;;;;;30.17;22.33;101416.03;5052650;28;20533;-88
2023/09/09 13:39:05;;;;;;;0.20;0.20;;;;;;;30.05;22.44;101410.28;5035611;28;20553;-87
2023/09/09 13:41:58;;;;;;;0.20;0.20;;;;;;;29.98;22.35;101417.38;5036458;28;20037;-88
2023/09/09 13:44:47;;;;;;;0.20;0.20;;;;;;;30.03;21.98;101417.66;5052473;28;20522;-88
2023/09/09 13:47:35;;;;;;;0.20;0.20;;;;;;;30.01;22.30;101414.34;5031604;28;20045;-87
2023/09/09 13:50:01;;;;;;;0.20;0.20;;;;;;;29.98;22.00;101402.19;5032278;28;20028;-88